createdAt,value
2019-04-01T00:01:36.034Z,101885.55
2019-04-01T00:04:05.724Z,101881.02
2019-04-01T00:06:35.419Z,101885.64
2019-04-01T00:09:06.582Z,101890.39
2019-04-01T00:11:36.165Z,101890.70
2019-04-01T00:14:05.689Z,101887.08
2019-04-01T00:16:35.112Z,101890.44
2019-04-01T00:19:04.745Z,101899.90
2019-04-01T00:21:34.301Z,101887.91
2019-04-01T00:24:03.759Z,101887.43
2019-04-01T00:26:33.290Z,101897.41
2019-04-01T00:29:02.723Z,101895.41
2019-04-01T00:31:32.206Z,101891.79
2019-04-01T00:34:01.620Z,101899.64
2019-04-01T00:36:31.070Z,101894.41
2019-04-01T00:39:00.572Z,101891.88
2019-04-01T00:41:32.919Z,101891.97
2019-04-01T00:44:04.051Z,101892.48
2019-04-01T00:46:33.573Z,101889.57
2019-04-01T00:49:03.005Z,101895.53
2019-04-01T00:51:32.453Z,101889.09
2019-04-01T00:54:01.866Z,101891.22
2019-04-01T00:56:31.367Z,101893.31
2019-04-01T00:59:00.948Z,101894.45
2019-04-01T01:01:30.529Z,101894.27
2019-04-01T01:04:00.053Z,101891.95
2019-04-01T01:06:29.507Z,101894.48
2019-04-01T01:08:58.939Z,101891.16
2019-04-01T01:11:28.397Z,101890.77
2019-04-01T01:13:57.822Z,101890.55
2019-04-01T01:16:27.292Z,101896.00
2019-04-01T01:18:56.718Z,101886.58
2019-04-01T01:21:27.405Z,101881.13
2019-04-01T01:23:56.856Z,101879.25
2019-04-01T01:26:26.392Z,101884.78
2019-04-01T01:28:58.592Z,101876.33
2019-04-01T01:31:28.119Z,101884.16
2019-04-01T01:33:57.541Z,101879.88
2019-04-01T01:36:27.047Z,101876.66
2019-04-01T01:38:56.485Z,101879.17
2019-04-01T01:41:25.958Z,101878.56
2019-04-01T01:43:55.572Z,101889.22
2019-04-01T01:46:25.039Z,101885.13
2019-04-01T01:48:54.600Z,101880.20
2019-04-01T01:51:24.020Z,101884.41
2019-04-01T01:53:53.491Z,101886.02
2019-04-01T01:56:23.135Z,101879.30
2019-04-01T01:58:52.660Z,101879.61
2019-04-01T02:01:22.298Z,101876.80
2019-04-01T02:03:52.075Z,101876.48
2019-04-01T02:06:21.532Z,101879.31
2019-04-01T02:08:50.983Z,101878.02
2019-04-01T02:11:20.458Z,101883.84
2019-04-01T02:13:49.913Z,101870.69
2019-04-01T02:16:19.529Z,101879.44
2019-04-01T02:18:48.992Z,101883.55
2019-04-01T02:21:18.417Z,101881.42
2019-04-01T02:23:47.893Z,101874.80
2019-04-01T02:26:17.332Z,101881.34
2019-04-01T02:28:46.789Z,101882.55
2019-04-01T02:31:16.253Z,101883.33
2019-04-01T02:33:46.760Z,101873.48
2019-04-01T02:36:16.225Z,101877.20
2019-04-01T02:38:45.645Z,101871.80
2019-04-01T02:41:15.208Z,101867.86
2019-04-01T02:43:44.672Z,101868.97
2019-04-01T02:46:14.095Z,101873.70
2019-04-01T02:48:43.565Z,101873.18
2019-04-01T02:51:13.092Z,101871.39
2019-04-01T02:53:42.549Z,101874.20
2019-04-01T02:56:12.322Z,101874.09
2019-04-01T02:58:42.364Z,101876.09
2019-04-01T03:01:11.800Z,101873.58
2019-04-01T03:03:41.266Z,101874.98
2019-04-01T03:06:10.761Z,101874.27
2019-04-01T03:08:40.384Z,101871.23
2019-04-01T03:11:11.165Z,101873.65
2019-04-01T03:13:40.856Z,101867.32
2019-04-01T03:16:10.265Z,101871.53
2019-04-01T03:18:39.792Z,101872.59
2019-04-01T03:21:09.505Z,101863.36
2019-04-01T03:23:39.011Z,101868.05
2019-04-01T03:26:08.419Z,101863.90
2019-04-01T03:28:37.899Z,101868.34
2019-04-01T03:31:07.328Z,101861.43
2019-04-01T03:33:36.837Z,101865.73
2019-04-01T03:36:06.333Z,101873.16
2019-04-01T03:38:35.815Z,101866.41
2019-04-01T03:41:06.373Z,101864.62
2019-04-01T03:43:35.865Z,101862.48
2019-04-01T03:46:07.249Z,101867.37
2019-04-01T03:48:36.857Z,101875.61
2019-04-01T03:51:06.408Z,101875.19
2019-04-01T03:53:36.891Z,101869.97
2019-04-01T03:56:06.545Z,101868.56
2019-04-01T03:58:36.001Z,101874.70
2019-04-01T04:01:05.548Z,101870.89
2019-04-01T04:03:34.997Z,101875.19
2019-04-01T04:06:04.496Z,101881.84
2019-04-01T04:08:33.957Z,101873.11
2019-04-01T04:11:03.859Z,101875.00
2019-04-01T04:13:33.382Z,101875.91
2019-04-01T04:16:03.787Z,101871.52
2019-04-01T04:18:34.311Z,101874.90
2019-04-01T04:21:04.424Z,101871.80
2019-04-01T04:23:33.900Z,101865.77
2019-04-01T04:26:03.315Z,101868.38
2019-04-01T04:28:32.913Z,101869.69
2019-04-01T04:31:02.422Z,101865.67
2019-04-01T04:33:31.846Z,101862.67
2019-04-01T04:36:01.295Z,101862.16
2019-04-01T04:38:30.729Z,101858.24
2019-04-01T04:41:00.179Z,101861.56
2019-04-01T04:43:29.617Z,101858.05
2019-04-01T04:45:59.053Z,101862.97
2019-04-01T04:48:28.515Z,101860.75
2019-04-01T04:50:58.073Z,101859.55
2019-04-01T04:53:27.540Z,101862.97
2019-04-01T04:55:57.001Z,101861.27
2019-04-01T04:58:26.472Z,101859.55
2019-04-01T05:00:56.003Z,101869.58
2019-04-01T05:03:25.565Z,101869.30
2019-04-01T05:05:55.015Z,101866.40
2019-04-01T05:08:24.437Z,101869.73
2019-04-01T05:10:53.985Z,101874.23
2019-04-01T05:13:23.435Z,101872.25
2019-04-01T05:15:52.903Z,101877.56
2019-04-01T05:18:22.337Z,101882.10
2019-04-01T05:20:52.541Z,101879.59
2019-04-01T05:23:22.338Z,101879.01
2019-04-01T05:25:52.638Z,101881.81
2019-04-01T05:28:24.313Z,101880.71
2019-04-01T05:30:53.910Z,101888.67
2019-04-01T05:33:23.613Z,101897.42
2019-04-01T05:35:53.039Z,101897.84
2019-04-01T05:38:22.586Z,101898.77
2019-04-01T05:40:52.744Z,101897.17
2019-04-01T05:43:23.053Z,101900.30
2019-04-01T05:45:52.576Z,101900.81
2019-04-01T05:48:23.733Z,101903.91
2019-04-01T05:50:53.625Z,101905.33
2019-04-01T05:53:23.120Z,101908.36
2019-04-01T05:55:52.638Z,101904.92
2019-04-01T05:58:22.072Z,101908.77
2019-04-01T06:01:08.208Z,101910.88
2019-04-01T06:03:37.989Z,101914.78
2019-04-01T06:06:07.498Z,101912.05
2019-04-01T06:08:36.997Z,101906.42
2019-04-01T06:11:06.476Z,101910.35
2019-04-01T06:13:35.972Z,101907.72
2019-04-01T06:16:05.502Z,101910.92
2019-04-01T06:18:35.032Z,101913.20
2019-04-01T06:21:04.524Z,101911.47
2019-04-01T06:23:34.193Z,101907.73
2019-04-01T06:26:04.572Z,101913.45
2019-04-01T06:28:34.059Z,101915.81
2019-04-01T06:31:04.501Z,101914.20
2019-04-01T06:33:33.944Z,101916.47
2019-04-01T06:36:04.970Z,101913.68
2019-04-01T06:38:34.533Z,101914.15
2019-04-01T06:41:04.587Z,101918.84
2019-04-01T06:43:34.075Z,101916.64
2019-04-01T06:46:04.466Z,101912.63
2019-04-01T06:48:33.926Z,101913.34
2019-04-01T06:51:03.530Z,101908.19
2019-04-01T06:53:32.951Z,101909.88
2019-04-01T06:56:02.417Z,101911.16
2019-04-01T06:58:31.996Z,101908.34
2019-04-01T07:01:01.737Z,101909.34
2019-04-01T07:03:31.169Z,101913.47
2019-04-01T07:06:01.490Z,101908.02
2019-04-01T07:08:31.715Z,101905.14
2019-04-01T07:11:01.606Z,101901.64
2019-04-01T07:16:14.396Z,101901.05
2019-04-01T07:18:31.199Z,101903.76
2019-04-01T07:21:00.700Z,101898.98
2019-04-01T07:23:30.240Z,101901.30
2019-04-01T07:25:59.715Z,101897.02
2019-04-01T07:28:29.250Z,101894.92
2019-04-01T07:30:58.701Z,101900.91
2019-04-01T07:33:28.192Z,101900.16
2019-04-01T07:35:57.626Z,101902.83
2019-04-01T07:38:27.342Z,101891.91
2019-04-01T07:40:59.232Z,101903.13
2019-04-01T07:43:29.310Z,101907.85
2019-04-01T07:46:00.103Z,101906.30
2019-04-01T07:48:30.689Z,101908.37
2019-04-01T07:51:00.117Z,101906.17
2019-04-01T07:53:29.843Z,101902.58
2019-04-01T07:56:02.391Z,101896.77
2019-04-01T07:58:30.596Z,101896.77
2019-04-01T08:01:00.164Z,101898.14
2019-04-01T08:03:29.825Z,101899.69
2019-04-01T08:05:59.269Z,101898.84
2019-04-01T08:08:28.762Z,101900.84
2019-04-01T08:10:58.372Z,101899.81
2019-04-01T08:13:27.970Z,101902.35
2019-04-01T08:15:57.571Z,101900.69
2019-04-01T08:18:26.994Z,101898.80
2019-04-01T08:20:56.462Z,101899.08
2019-04-01T08:23:25.902Z,101890.13
2019-04-01T08:25:55.406Z,101888.11
2019-04-01T08:28:26.465Z,101892.17
2019-04-01T08:30:56.945Z,101889.86
2019-04-01T08:33:26.485Z,101888.66
2019-04-01T08:35:56.148Z,101887.28
2019-04-01T08:38:26.058Z,101884.18
2019-04-01T08:40:55.543Z,101890.48
2019-04-01T08:43:25.055Z,101879.23
2019-04-01T08:45:54.460Z,101891.33
2019-04-01T08:48:23.897Z,101887.08
2019-04-01T08:50:53.809Z,101880.98
2019-04-01T08:53:23.403Z,101891.86
2019-04-01T08:56:00.697Z,101883.65
2019-04-01T08:58:24.340Z,101878.43
2019-04-01T09:00:53.837Z,101877.22
2019-04-01T09:03:23.725Z,101880.06
2019-04-01T09:05:53.329Z,101874.84
2019-04-01T09:08:24.478Z,101876.52
2019-04-01T09:10:54.473Z,101872.09
2019-04-01T09:13:24.566Z,101867.39
2019-04-01T09:15:54.335Z,101868.86
2019-04-01T09:18:23.868Z,101870.08
2019-04-01T09:20:53.337Z,101864.90
2019-04-01T09:23:22.904Z,101858.31
2019-04-01T09:25:57.553Z,101859.80
2019-04-01T09:28:24.034Z,101859.98
2019-04-01T09:30:53.555Z,101857.45
2019-04-01T09:33:24.717Z,101857.09
2019-04-01T09:35:56.014Z,101860.34
2019-04-01T09:38:27.011Z,101857.26
2019-04-01T09:40:56.658Z,101856.24
2019-04-01T09:43:26.140Z,101847.55
2019-04-01T09:45:55.598Z,101850.30
2019-04-01T09:48:26.779Z,101850.86
2019-04-01T09:50:56.204Z,101846.70
2019-04-01T09:53:27.136Z,101847.66
2019-04-01T09:55:56.613Z,101847.30
2019-04-01T09:58:26.069Z,101841.20
2019-04-01T10:00:55.779Z,101845.08
2019-04-01T10:03:25.404Z,101838.41
2019-04-01T10:05:55.248Z,101833.78
2019-04-01T10:08:24.737Z,101834.02
2019-04-01T10:10:54.263Z,101843.01
2019-04-01T10:13:23.738Z,101831.82
2019-04-01T10:15:53.259Z,101829.78
2019-04-01T10:18:22.746Z,101827.47
2019-04-01T10:20:52.225Z,101820.23
2019-04-01T10:23:21.811Z,101819.87
2019-04-01T10:25:51.841Z,101818.19
2019-04-01T10:28:22.701Z,101825.25
2019-04-01T10:30:52.286Z,101811.27
2019-04-01T10:33:22.865Z,101816.96
2019-04-01T10:35:52.333Z,101809.35
2019-04-01T10:38:21.824Z,101804.38
2019-04-01T10:40:51.567Z,101808.08
2019-04-01T10:43:21.148Z,101801.10
2019-04-01T10:45:50.660Z,101794.77
2019-04-01T10:48:20.358Z,101794.77
2019-04-01T10:50:50.071Z,101773.92
2019-04-01T10:53:19.706Z,101780.39
2019-04-01T10:55:49.233Z,101784.48
2019-04-01T10:58:18.738Z,101779.88
2019-04-01T11:00:59.267Z,101765.58
2019-04-01T11:03:19.595Z,101764.34
2019-04-01T11:05:51.968Z,101754.77
2019-04-01T11:08:21.551Z,101760.31
2019-04-01T11:10:51.269Z,101759.91
2019-04-01T11:13:21.912Z,101751.79
2019-04-01T11:15:51.689Z,101756.50
2019-04-01T11:18:22.814Z,101752.20
2019-04-01T11:20:52.439Z,101751.59
2019-04-01T11:23:22.029Z,101746.19
2019-04-01T11:25:51.704Z,101747.80
2019-04-01T11:28:21.439Z,101736.19
2019-04-01T11:30:50.967Z,101737.92
2019-04-01T11:33:20.572Z,101738.17
2019-04-01T11:35:50.109Z,101729.70
2019-04-01T11:38:19.738Z,101727.22
2019-04-01T11:40:50.403Z,101713.54
2019-04-01T11:43:19.980Z,101723.58
2019-04-01T11:46:00.405Z,101726.01
2019-04-01T11:48:20.771Z,101708.44
2019-04-01T11:50:50.512Z,101711.61
2019-04-01T11:53:21.714Z,101709.95
2019-04-01T11:55:51.278Z,101702.62
2019-04-01T11:58:20.924Z,101691.23
2019-04-01T12:00:51.014Z,101694.98
2019-04-01T12:03:22.079Z,101680.99
2019-04-01T12:05:53.006Z,101684.92
2019-04-01T12:08:24.520Z,101669.84
2019-04-01T12:10:55.722Z,101669.84
2019-04-01T12:13:25.247Z,101668.09
2019-04-01T12:15:56.485Z,101661.05
2019-04-01T12:18:26.997Z,101654.20
2019-04-01T12:20:56.563Z,101655.61
2019-04-01T12:23:26.176Z,101652.61
2019-04-01T12:25:57.044Z,101650.91
2019-04-01T12:28:26.537Z,101645.86
2019-04-01T12:30:59.630Z,101638.16
2019-04-01T12:33:28.762Z,101638.34
2019-04-01T12:36:11.188Z,101637.98
2019-04-01T12:38:36.976Z,101633.14
2019-04-01T12:41:08.097Z,101632.66
2019-04-01T12:43:37.631Z,101626.97
2019-04-01T12:46:09.600Z,101622.02
2019-04-01T12:48:42.689Z,101620.66
2019-04-01T12:51:13.843Z,101613.45
2019-04-01T12:53:45.194Z,101614.91
2019-04-01T12:56:25.294Z,101592.88
2019-04-01T12:58:47.469Z,101592.88
2019-04-01T13:01:18.577Z,101602.29
2019-04-01T13:03:49.157Z,101594.50
2019-04-01T13:06:19.999Z,101587.11
2019-04-01T13:08:49.490Z,101585.05
2019-04-01T13:11:19.534Z,101582.36
2019-04-01T13:13:49.470Z,101579.22
2019-04-01T13:16:19.062Z,101589.12
2019-04-01T13:18:48.498Z,101587.95
2019-04-01T13:21:18.231Z,101573.38
2019-04-01T13:23:47.819Z,101572.92
2019-04-01T13:26:18.406Z,101553.56
2019-04-01T13:28:47.830Z,101559.37
2019-04-01T13:31:17.293Z,101548.77
2019-04-01T13:33:46.737Z,101543.11
2019-04-01T13:36:16.303Z,101539.22
2019-04-01T13:38:45.737Z,101534.41
2019-04-01T13:41:15.774Z,101535.81
2019-04-01T13:43:45.573Z,101523.47
2019-04-01T13:46:15.100Z,101510.23
2019-04-01T13:48:56.875Z,101517.41
2019-04-01T13:51:15.763Z,101518.00
2019-04-01T13:53:45.529Z,101510.56
2019-04-01T13:56:15.000Z,101499.05
2019-04-01T13:58:44.430Z,101503.95
2019-04-01T14:01:13.904Z,101496.93
2019-04-01T14:03:43.360Z,101504.13
2019-04-01T14:06:13.942Z,101490.91
2019-04-01T14:08:43.397Z,101490.44
2019-04-01T14:11:12.973Z,101481.09
2019-04-01T14:13:42.451Z,101479.38
2019-04-01T14:16:11.909Z,101477.17
2019-04-01T14:18:41.417Z,101470.14
2019-04-01T14:21:17.556Z,101473.65
2019-04-01T14:23:42.220Z,101465.21
2019-04-01T14:26:12.233Z,101467.05
2019-04-01T14:28:42.060Z,101454.31
2019-04-01T14:31:11.520Z,101451.18
2019-04-01T14:33:40.950Z,101449.83
2019-04-01T14:36:10.788Z,101436.33
2019-04-01T14:38:40.322Z,101439.91
2019-04-01T14:41:09.849Z,101435.95
2019-04-01T14:43:40.304Z,101427.20
2019-04-01T14:46:09.906Z,101427.20
2019-04-01T14:48:39.381Z,101426.84
2019-04-01T14:51:08.811Z,101425.54
2019-04-01T14:53:38.286Z,101416.15
2019-04-01T14:56:07.738Z,101407.23
2019-04-01T14:58:37.184Z,101403.23
2019-04-01T15:01:06.906Z,101402.81
2019-04-01T15:03:39.202Z,101401.89
2019-04-01T15:06:08.931Z,101397.11
2019-04-01T15:08:38.334Z,101398.95
2019-04-01T15:11:08.079Z,101389.59
2019-04-01T15:13:38.422Z,101394.88
2019-04-01T15:16:09.796Z,101378.94
2019-04-01T15:18:39.511Z,101375.36
2019-04-01T15:21:11.562Z,101375.41
2019-04-01T15:23:40.759Z,101367.20
2019-04-01T15:26:10.219Z,101345.70
2019-04-01T15:28:39.706Z,101356.89
2019-04-01T15:31:10.787Z,101351.20
2019-04-01T15:33:40.291Z,101349.88
2019-04-01T15:36:09.777Z,101344.00
2019-04-01T15:38:39.256Z,101335.12
2019-04-01T15:41:08.701Z,101339.08
2019-04-01T15:43:38.163Z,101329.00
2019-04-01T15:46:07.630Z,101327.55
2019-04-01T15:48:37.159Z,101315.95
2019-04-01T15:51:07.813Z,101322.05
2019-04-01T15:53:37.340Z,101312.30
2019-04-01T15:56:07.019Z,101320.30
2019-04-01T15:58:36.506Z,101313.22
2019-04-01T16:01:06.025Z,101312.25
2019-04-01T16:03:36.485Z,101309.05
2019-04-01T16:06:07.544Z,101301.98
2019-04-01T16:08:37.289Z,101299.77
2019-04-01T16:11:06.725Z,101301.64
2019-04-01T16:13:36.210Z,101294.18
2019-04-01T16:16:07.062Z,101303.84
2019-04-01T16:18:36.625Z,101294.45
2019-04-01T16:21:06.143Z,101278.94
2019-04-01T16:23:37.109Z,101287.77
2019-04-01T16:26:09.485Z,101284.63
2019-04-01T16:28:38.049Z,101288.53
2019-04-01T16:31:07.414Z,101286.27
2019-04-01T16:33:36.855Z,101281.63
2019-04-01T16:36:06.288Z,101280.55
2019-04-01T16:38:35.758Z,101276.88
2019-04-01T16:41:05.279Z,101275.53
2019-04-01T16:43:38.071Z,101277.26
2019-04-01T16:46:05.944Z,101273.20
2019-04-01T16:48:35.416Z,101282.83
2019-04-01T16:51:04.890Z,101272.10
2019-04-01T16:53:34.371Z,101278.73
2019-04-01T16:56:05.236Z,101281.33
2019-04-01T16:58:35.298Z,101276.43
2019-04-01T17:01:04.803Z,101281.64
2019-04-01T17:03:34.269Z,101281.48
2019-04-01T17:06:04.675Z,101277.06
2019-04-01T17:08:34.409Z,101276.05
2019-04-01T17:11:04.437Z,101273.77
2019-04-01T17:13:33.993Z,101277.70
2019-04-01T17:16:04.703Z,101277.50
2019-04-01T17:18:34.530Z,101272.95
2019-04-01T17:21:05.045Z,101273.68
2019-04-01T17:23:35.028Z,101273.51
2019-04-01T17:26:04.747Z,101279.95
2019-04-01T17:28:34.276Z,101273.28
2019-04-01T17:31:05.188Z,101275.75
2019-04-01T17:33:35.742Z,101275.03
2019-04-01T17:36:05.696Z,101265.16
2019-04-01T17:38:36.246Z,101271.27
2019-04-01T17:41:06.402Z,101264.50
2019-04-01T17:43:36.011Z,101270.03
2019-04-01T17:46:05.491Z,101266.30
2019-04-01T17:48:35.159Z,101264.03
2019-04-01T17:51:04.851Z,101260.84
2019-04-01T17:53:34.553Z,101262.84
2019-04-01T17:56:06.786Z,101256.94
2019-04-01T17:58:36.222Z,101261.68
2019-04-01T18:01:06.068Z,101260.19
2019-04-01T18:03:36.007Z,101255.16
2019-04-01T18:06:05.610Z,101254.41
2019-04-01T18:08:35.576Z,101268.31
2019-04-01T18:11:05.201Z,101262.44
2019-04-01T18:13:34.629Z,101261.01
2019-04-01T18:16:04.249Z,101259.06
2019-04-01T18:18:34.646Z,101260.20
2019-04-01T18:21:04.477Z,101260.97
2019-04-01T18:23:33.997Z,101259.08
2019-04-01T18:26:04.796Z,101258.07
2019-04-01T18:28:34.559Z,101258.75
2019-04-01T18:31:04.494Z,101254.12
2019-04-01T18:33:34.397Z,101255.67
2019-04-01T18:36:04.569Z,101253.30
2019-04-01T18:38:34.111Z,101256.72
2019-04-01T18:41:05.265Z,101257.59
2019-04-01T18:43:34.931Z,101259.33
2019-04-01T18:46:04.573Z,101255.25
2019-04-01T18:48:34.551Z,101253.70
2019-04-01T18:51:04.645Z,101260.59
2019-04-01T18:53:34.133Z,101255.69
2019-04-01T18:56:04.530Z,101253.13
2019-04-01T18:58:34.118Z,101252.52
2019-04-01T19:01:04.447Z,101248.45
2019-04-01T19:03:34.447Z,101248.29
2019-04-01T19:06:04.501Z,101244.67
2019-04-01T19:08:34.462Z,101244.17
2019-04-01T19:11:04.551Z,101247.84
2019-04-01T19:13:34.087Z,101240.75
2019-04-01T19:16:05.939Z,101239.39
2019-04-01T19:18:39.542Z,101242.36
2019-04-01T19:21:08.669Z,101236.52
2019-04-01T19:23:38.614Z,101241.34
2019-04-01T19:26:10.063Z,101237.22
2019-04-01T19:28:39.821Z,101234.92
2019-04-01T19:31:09.441Z,101236.11
2019-04-01T19:33:40.503Z,101234.27
2019-04-01T19:36:10.145Z,101233.97
2019-04-01T19:38:40.980Z,101231.86
2019-04-01T19:41:10.533Z,101235.41
2019-04-01T19:43:40.563Z,101230.55
2019-04-01T19:46:10.303Z,101230.55
2019-04-01T19:48:40.171Z,101227.38
2019-04-01T19:51:09.600Z,101219.80
2019-04-01T19:53:39.808Z,101224.05
2019-04-01T19:56:09.622Z,101222.15
2019-04-01T19:58:39.330Z,101215.06
2019-04-01T20:01:09.619Z,101213.37
2019-04-01T20:03:39.767Z,101216.50
2019-04-01T20:06:10.001Z,101213.37
2019-04-01T20:08:39.773Z,101219.14
2019-04-01T20:11:11.804Z,101217.70
2019-04-01T20:13:42.844Z,101211.39
2019-04-01T20:16:13.055Z,101210.33
2019-04-01T20:18:43.351Z,101208.02
2019-04-01T20:21:13.414Z,101210.53
2019-04-01T20:23:43.034Z,101204.68
2019-04-01T20:26:12.546Z,101200.81
2019-04-01T20:28:42.233Z,101194.76
2019-04-01T20:31:11.918Z,101194.47
2019-04-01T20:33:41.337Z,101178.41
2019-04-01T20:36:11.205Z,101178.41
2019-04-01T20:38:40.845Z,101188.95
2019-04-01T20:41:10.552Z,101186.39
2019-04-01T20:43:40.043Z,101178.94
2019-04-01T20:46:10.140Z,101181.91
2019-04-01T20:48:40.617Z,101180.09
2019-04-01T20:51:10.045Z,101179.44
2019-04-01T20:53:40.735Z,101174.08
2019-04-01T20:56:10.232Z,101164.20
2019-04-01T20:58:39.709Z,101165.39
2019-04-01T21:01:12.235Z,101164.33
2019-04-01T21:03:42.506Z,101156.25
2019-04-01T21:06:12.196Z,101153.41
2019-04-01T21:08:41.800Z,101144.42
2019-04-01T21:11:11.645Z,101143.89
2019-04-01T21:13:41.857Z,101145.07
2019-04-01T21:16:11.395Z,101143.62
2019-04-01T21:18:41.006Z,101142.96
2019-04-01T21:21:12.597Z,101134.48
2019-04-01T21:23:42.018Z,101135.66
2019-04-01T21:26:11.553Z,101130.22
2019-04-01T21:28:41.413Z,101122.51
2019-04-01T21:31:10.868Z,101122.83
2019-04-01T21:33:41.152Z,101119.61
2019-04-01T21:36:11.604Z,101116.44
2019-04-01T21:38:41.076Z,101119.84
2019-04-01T21:41:10.536Z,101112.63
2019-04-01T21:43:40.297Z,101110.23
2019-04-01T21:46:09.711Z,101105.28
2019-04-01T21:48:39.769Z,101100.84
2019-04-01T21:51:09.264Z,101100.30
2019-04-01T21:53:38.714Z,101090.09
2019-04-01T21:56:08.168Z,101089.63
2019-04-01T21:58:37.624Z,101092.22
2019-04-01T22:01:07.583Z,101086.64
2019-04-01T22:03:38.288Z,101084.00
2019-04-01T22:06:07.777Z,101075.62
2019-04-01T22:08:37.317Z,101073.58
2019-04-01T22:11:06.817Z,101070.22
2019-04-01T22:13:36.300Z,101066.31
2019-04-01T22:16:05.864Z,101064.14
2019-04-01T22:18:35.311Z,101053.20
2019-04-01T22:21:04.894Z,101057.52
2019-04-01T22:23:35.490Z,101050.94
2019-04-01T22:26:05.998Z,101044.41
2019-04-01T22:28:36.455Z,101042.09
2019-04-01T22:31:05.909Z,101038.64
2019-04-01T22:33:35.359Z,101033.75
2019-04-01T22:36:04.892Z,101029.71
2019-04-01T22:38:35.137Z,101026.13
2019-04-01T22:41:05.031Z,101025.19
2019-04-01T22:43:34.624Z,101014.66
2019-04-01T22:46:04.528Z,101011.91
2019-04-01T22:48:34.211Z,101008.36
2019-04-01T22:51:03.687Z,101014.94
2019-04-01T22:53:33.347Z,101011.91
2019-04-01T22:56:03.457Z,101001.38
2019-04-01T22:58:32.925Z,101007.95
2019-04-01T23:01:02.346Z,100990.68
2019-04-01T23:03:31.806Z,100994.13
2019-04-01T23:06:01.996Z,100991.87
2019-04-01T23:08:31.770Z,100976.27
2019-04-01T23:11:01.910Z,100976.27
2019-04-01T23:13:31.710Z,100980.27
2019-04-01T23:16:01.652Z,100984.11
2019-04-01T23:18:31.101Z,100980.53
2019-04-01T23:21:01.245Z,100981.67
2019-04-01T23:23:31.573Z,100975.87
2019-04-01T23:26:01.030Z,100971.39
2019-04-01T23:28:30.549Z,100975.16
2019-04-01T23:30:59.977Z,100975.16
2019-04-01T23:33:29.402Z,100962.82
2019-04-01T23:35:58.855Z,100967.08
2019-04-01T23:38:28.278Z,100961.70
2019-04-01T23:40:57.747Z,100952.89
2019-04-01T23:43:27.282Z,100953.26
2019-04-01T23:45:56.734Z,100941.89
2019-04-01T23:48:26.179Z,100943.20
2019-04-01T23:50:55.634Z,100937.90
2019-04-01T23:53:26.071Z,100941.80
2019-04-01T23:55:55.496Z,100932.91
2019-04-01T23:58:24.970Z,100935.86
